Time;durP1;ratioP1;P1;durP2;ratioP2;P2;SDS_P1;SDS_P2;PMS_P1;PMS_P2;Temp;Humidity;BMP_temperature;BMP_pressure;BME280_temperature;BME280_humidity;BME280_pressure;Samples;Min_cycle;Max_cycle;Signal;HPM_P1;HPM_P2
2022/02/04 04:31:33;;;;;;;14.80;11.10;;;;;;;11.59;62.15;98735.50;7796880;23;20710;-86
2022/02/04 04:34:55;;;;;;;14.37;10.23;;;;;;;11.03;62.18;98662.34;6893284;28;20217;-86
2022/02/04 04:38:27;;;;;;;12.87;10.50;;;;;;;10.88;62.22;98633.97;6893223;28;20751;-87
2022/02/04 04:41:59;;;;;;;13.10;9.83;;;;;;;11.10;62.52;98667.75;6901104;28;20238;-88
2022/02/04 05:26:17;;;;;;;12.90;9.80;;;;;;;11.14;62.96;98723.75;6898070;28;20200;-88
2022/02/04 05:29:39;;;;;;;12.60;10.20;;;;;;;11.07;63.23;98716.72;6895788;28;20681;-88
2022/02/04 05:33:00;;;;;;;13.23;10.37;;;;;;;11.41;62.23;98752.38;6895717;28;20293;-89
2022/02/04 05:36:25;;;;;;;13.63;10.77;;;;;;;11.34;62.43;98740.72;6895983;28;20248;-88
2022/02/04 05:39:53;;;;;;;13.00;10.87;;;;;;;11.60;61.76;98743.41;6894864;28;20314;-88
2022/02/04 05:43:20;;;;;;;12.57;10.50;;;;;;;11.37;61.94;98756.53;6895801;28;20232;-87
2022/02/04 05:46:50;;;;;;;13.57;10.87;;;;;;;11.07;62.66;98743.69;6896119;28;20196;-86
2022/02/04 05:50:17;;;;;;;11.13;9.93;;;;;;;10.34;62.50;98641.50;6899146;28;20231;-86
2022/02/04 05:53:50;;;;;;;13.73;9.80;;;;;;;10.88;61.43;98677.13;6899956;28;20193;-87
2022/02/04 05:57:17;;;;;;;12.47;9.20;;;;;;;10.91;60.89;98672.13;6901796;28;20240;-87
2022/02/04 06:00:51;;;;;;;10.67;9.57;;;;;;;11.24;61.63;98748.47;6901498;28;20232;-87
2022/02/04 06:04:28;;;;;;;10.17;8.13;;;;;;;11.11;61.13;98761.13;6901563;28;20260;-87
2022/02/04 06:08:16;;;;;;;15.40;9.53;;;;;;;11.04;60.20;98727.94;6902449;28;20201;-87
2022/02/04 06:11:47;;;;;;;10.27;8.23;;;;;;;11.03;60.58;98735.19;6900390;28;20228;-87
2022/02/04 06:22:03;;;;;;;9.10;8.20;;;;;;;10.95;61.00;98753.47;6900005;28;20190;-87
2022/02/04 06:22:34;;;;;;;10.93;9.83;;;;;;;10.18;64.59;98788.22;6913762;28;20227;-87
2022/02/04 06:25:56;;;;;;;12.10;10.40;;;;;;;10.22;65.50;98781.38;6915494;28;20211;-88
2022/02/04 06:29:18;;;;;;;14.23;10.30;;;;;;;10.31;64.67;98758.63;6916517;28;20243;-88
2022/02/04 06:32:43;;;;;;;14.60;9.53;;;;;;;10.16;65.72;98770.59;6918762;28;20232;-88
2022/02/04 06:36:07;;;;;;;11.07;9.80;;;;;;;10.23;64.86;98718.41;6912414;28;20204;-89
2022/02/04 06:39:28;;;;;;;10.70;9.70;;;;;;;10.43;64.91;98781.22;6899705;28;20204;-89
2022/02/04 06:42:50;;;;;;;10.67;9.57;;;;;;;10.06;65.33;98762.06;6901272;28;20235;-88
2022/02/04 06:46:26;;;;;;;10.93;9.17;;;;;;;9.87;65.32;98730.50;6902916;28;20569;-88
2022/02/04 06:49:48;;;;;;;12.87;10.00;;;;;;;10.47;63.75;98707.03;6906818;28;20572;-92
2022/02/04 06:53:11;;;;;;;12.40;9.90;;;;;;;10.78;62.22;98722.56;6893201;28;20221;-91
2022/02/04 06:56:35;;;;;;;15.73;12.70;;;;;;;10.81;62.72;98758.03;6895387;28;20219;-90
2022/02/04 06:59:59;;;;;;;14.53;11.30;;;;;;;11.13;62.28;98770.69;6887043;28;20234;-90
2022/02/04 07:03:20;;;;;;;14.33;11.07;;;;;;;10.90;62.68;98793.72;6888433;28;20219;-89
2022/02/04 07:06:53;;;;;;;14.50;11.77;;;;;;;11.00;62.73;98810.31;6879584;28;20267;-90
2022/02/04 07:10:23;;;;;;;12.73;11.40;;;;;;;11.40;61.62;98796.56;6883781;28;20199;-89
2022/02/04 07:14:05;;;;;;;11.63;9.70;;;;;;;10.96;60.21;98709.25;6899963;28;20212;-90
2022/02/04 07:17:43;;;;;;;10.57;9.47;;;;;;;11.42;59.86;98794.50;6900852;28;20307;-90
2022/02/04 07:21:06;;;;;;;9.57;8.33;;;;;;;10.82;60.71;98738.13;6875277;28;20372;-89
2022/02/04 07:24:27;;;;;;;8.50;7.63;;;;;;;11.01;60.52;98787.69;6872422;28;20925;-88
2022/02/04 07:27:50;;;;;;;9.70;8.10;;;;;;;10.93;60.70;98779.81;6870831;28;20216;-89
2022/02/04 07:31:19;;;;;;;8.43;7.63;;;;;;;10.90;60.99;98785.63;6879707;28;20228;-89
2022/02/04 07:34:48;;;;;;;8.60;7.40;;;;;;;10.33;60.93;98686.47;6874357;28;20201;-89
2022/02/04 07:41:50;;;;;;;7.93;7.13;;;;;;;11.02;59.82;98790.19;6900153;28;20295;-90
2022/02/04 07:45:33;;;;;;;7.20;6.50;;;;;;;11.09;59.82;98787.50;6901652;28;20260;-87
2022/02/04 07:48:55;;;;;;;7.90;7.10;;;;;;;10.84;59.55;98764.88;6893534;28;20262;-88
2022/02/04 07:52:16;;;;;;;9.40;8.33;;;;;;;10.72;61.27;98794.34;6884480;28;20283;-89
2022/02/04 07:55:38;;;;;;;7.67;6.87;;;;;;;10.96;59.11;98772.16;6884471;28;20208;-90
2022/02/04 07:59:06;;;;;;;8.77;7.27;;;;;;;9.94;61.57;98707.94;6887964;28;20197;-88
2022/02/04 08:02:30;;;;;;;8.20;7.00;;;;;;;11.08;59.54;98767.78;6893533;28;20224;-89
2022/02/04 08:05:54;;;;;;;7.80;6.83;;;;;;;10.59;61.40;98774.63;6887601;28;20219;-90
2022/02/04 08:09:24;;;;;;;7.17;6.47;;;;;;;10.99;59.64;98774.41;6865245;28;20239;-89
2022/02/04 08:13:14;;;;;;;8.00;7.20;;;;;;;11.07;59.99;98798.50;6872785;28;20303;-91
2022/02/04 08:20:52;;;;;;;8.33;7.53;;;;;;;10.64;60.72;98796.41;6878471;28;20208;-90
2022/02/04 08:24:34;;;;;;;8.63;7.33;;;;;;;10.38;61.53;98781.00;6896971;28;20205;-90
2022/02/04 08:28:19;;;;;;;9.17;8.23;;;;;;;10.13;61.94;98744.06;6876875;28;20554;-88
2022/02/04 08:39:34;;;;;;;9.60;7.80;;;;;;;11.08;59.74;98759.69;6888011;28;20204;-84
2022/02/04 08:46:58;;;;;;;6.23;5.63;;;;;;;15.20;47.35;98741.06;6882955;28;20214;-85
2022/02/04 08:54:12;;;;;;;5.40;4.90;;;;;;;17.72;40.55;98713.75;6865455;28;20232;-85
2022/02/04 08:57:48;;;;;;;6.23;5.33;;;;;;;18.22;41.00;98738.09;6887988;28;20198;-85
2022/02/04 09:01:15;;;;;;;6.60;4.97;;;;;;;18.32;40.04;98749.97;6885224;28;20249;-85
2022/02/04 09:04:41;;;;;;;6.63;5.57;;;;;;;18.76;38.81;98728.88;6892965;28;20209;-85
2022/02/04 09:08:18;;;;;;;6.40;5.50;;;;;;;18.75;38.58;98754.53;6913323;28;20214;-85
2022/02/04 09:11:46;;;;;;;6.47;5.87;;;;;;;17.14;41.52;98765.19;6921761;28;20230;-84
2022/02/04 09:19:00;;;;;;;11.10;8.77;;;;;;;14.99;45.75;98763.34;6895337;28;20209;-88
2022/02/04 09:22:27;;;;;;;8.30;7.17;;;;;;;14.43;49.67;98762.16;6878226;28;20322;-87
2022/02/04 09:25:51;;;;;;;6.77;5.90;;;;;;;13.68;50.18;98730.19;6874395;28;20212;-86
2022/02/04 09:29:14;;;;;;;7.83;6.50;;;;;;;13.82;49.95;98758.78;6908122;28;20205;-86
2022/02/04 09:32:38;;;;;;;8.47;6.83;;;;;;;12.99;52.54;98748.59;6884354;28;20248;-86
2022/02/04 09:36:00;;;;;;;6.77;6.10;;;;;;;12.74;53.30;98748.56;6872828;28;20647;-87
2022/02/04 09:39:22;;;;;;;5.83;5.23;;;;;;;13.37;52.47;98750.09;6877578;28;20205;-86
2022/02/04 09:42:45;;;;;;;6.50;5.77;;;;;;;13.78;50.67;98706.91;6869402;28;20240;-86
2022/02/04 09:46:09;;;;;;;5.50;5.00;;;;;;;14.49;49.21;98739.53;6869986;28;20216;-87
2022/02/04 09:49:35;;;;;;;5.60;5.00;;;;;;;14.63;49.34;98741.00;6870499;28;20236;-87
2022/02/04 10:08:15;;;;;;;4.33;3.90;;;;;;;13.62;49.81;98710.22;6884848;28;20208;-82
2022/02/04 10:15:23;;;;;;;12.33;6.57;;;;;;;13.94;51.37;98686.47;6866434;28;20207;-85
2022/02/04 10:18:50;;;;;;;3.93;3.63;;;;;;;13.74;50.15;98721.16;6881646;28;20212;-87
2022/02/04 10:22:17;;;;;;;4.23;3.83;;;;;;;12.78;52.41;98732.72;6871714;28;20228;-84
2022/02/04 10:25:41;;;;;;;3.83;3.40;;;;;;;12.84;52.10;98718.31;6866454;28;20251;-85
2022/02/04 10:29:03;;;;;;;3.93;3.50;;;;;;;13.10;51.49;98729.75;6866921;28;20208;-82
2022/02/04 10:32:26;;;;;;;4.03;3.50;;;;;;;13.46;51.32;98727.06;6866710;28;20241;-86
2022/02/04 10:35:51;;;;;;;4.43;4.03;;;;;;;13.39;52.00;98731.75;6863861;28;20270;-86
2022/02/04 10:39:35;;;;;;;4.17;3.77;;;;;;;13.65;51.06;98717.09;6866144;28;20205;-83
2022/02/04 10:46:38;;;;;;;4.10;3.70;;;;;;;13.31;50.55;98690.59;6863971;28;20683;-86
2022/02/04 10:50:08;;;;;;;5.03;4.10;;;;;;;12.97;51.68;98691.16;6865894;28;20208;-84
2022/02/04 11:01:13;;;;;;;5.53;3.67;;;;;;;12.63;52.64;98702.47;6873800;28;20351;-86
2022/02/04 11:04:42;;;;;;;3.63;3.33;;;;;;;12.66;52.07;98691.19;6887725;28;20208;-89
2022/02/04 11:08:23;;;;;;;5.13;4.63;;;;;;;12.84;52.32;98683.13;6886291;28;20194;-89
2022/02/04 11:12:08;;;;;;;3.43;3.13;;;;;;;13.16;51.23;98680.13;6864047;28;20269;-89
2022/02/04 11:34:15;;;;;;;3.13;2.83;;;;;;;12.78;50.43;98673.19;6870530;28;20201;-91
2022/02/04 11:53:35;;;;;;;3.30;3.00;;;;;;;12.76;49.63;98656.38;6893991;28;20225;-91
2022/02/04 11:57:20;;;;;;;2.83;2.63;;;;;;;13.12;48.79;98645.63;6889669;28;20207;-89
2022/02/04 12:00:43;;;;;;;3.07;2.87;;;;;;;13.00;48.94;98633.88;6876084;28;20236;-89
2022/02/04 12:04:19;;;;;;;4.60;3.63;;;;;;;12.00;50.40;98631.41;6862779;28;20304;-89
2022/02/04 12:07:44;;;;;;;2.53;2.33;;;;;;;12.70;49.36;98636.44;6864238;28;20680;-88
2022/02/04 12:11:11;;;;;;;2.97;2.70;;;;;;;12.58;48.86;98623.88;6862766;28;20227;-90
2022/02/04 12:14:34;;;;;;;3.60;3.20;;;;;;;12.81;49.19;98605.13;6862037;28;20213;-87
2022/02/04 12:17:55;;;;;;;2.77;2.40;;;;;;;12.64;48.42;98521.00;6864065;28;20224;-88
2022/02/04 12:21:19;;;;;;;2.83;2.63;;;;;;;13.42;47.47;98611.31;6878458;28;20232;-88
2022/02/04 12:24:46;;;;;;;2.00;1.90;;;;;;;12.82;48.20;98591.38;6880648;28;20689;-89
2022/02/04 12:28:08;;;;;;;2.33;2.13;;;;;;;13.08;48.17;98601.09;6863322;28;20212;-92
2022/02/04 12:31:31;;;;;;;1.83;1.70;;;;;;;12.75;47.98;98584.38;6871317;28;20264;-89
2022/02/04 12:34:53;;;;;;;1.90;1.80;;;;;;;12.78;48.45;98590.16;6871869;28;20262;-90
2022/02/04 12:38:14;;;;;;;2.87;2.67;;;;;;;13.24;47.08;98562.59;6872266;28;20209;-90
2022/02/04 12:41:39;;;;;;;2.60;2.40;;;;;;;12.88;47.86;98584.25;6870734;28;20236;-87
2022/02/04 12:45:05;;;;;;;1.97;1.87;;;;;;;12.66;47.61;98583.84;6864441;28;20216;-90
2022/02/04 12:48:26;;;;;;;2.40;2.20;;;;;;;12.53;49.15;98575.88;6861855;28;20189;-90
2022/02/04 12:51:54;;;;;;;1.90;1.80;;;;;;;12.48;48.31;98551.38;6861651;28;20320;-88
2022/02/04 12:55:23;;;;;;;2.37;2.20;;;;;;;12.61;48.71;98544.97;6876934;28;20591;-90
2022/02/04 12:59:09;;;;;;;2.00;1.90;;;;;;;12.61;48.67;98555.81;6878755;28;20209;-91
2022/02/04 13:02:53;;;;;;;1.90;1.80;;;;;;;13.12;46.60;98554.44;6879006;28;20224;-90
2022/02/04 13:09:59;;;;;;;2.00;1.90;;;;;;;12.89;46.98;98556.97;6874180;28;20197;-89
2022/02/04 13:13:23;;;;;;;2.63;1.70;;;;;;;12.63;47.45;98548.31;6868448;28;20229;-90
2022/02/04 13:16:52;;;;;;;2.03;1.93;;;;;;;12.81;46.66;98545.63;6866482;28;20685;-88
2022/02/04 13:20:16;;;;;;;2.00;1.73;;;;;;;12.97;46.02;98540.44;6870442;28;20550;-91
2022/02/04 13:23:38;;;;;;;1.90;1.80;;;;;;;12.38;46.98;98542.94;6898154;28;20224;-89
2022/02/04 13:27:12;;;;;;;2.00;1.90;;;;;;;12.25;46.66;98550.34;6908156;28;20212;-89
2022/02/04 13:30:36;;;;;;;2.00;1.87;;;;;;;12.35;47.00;98531.75;6874730;28;20729;-88
2022/02/04 13:34:08;;;;;;;2.30;2.10;;;;;;;12.27;47.20;98532.84;6878918;28;20212;-87
2022/02/04 13:37:34;;;;;;;2.33;2.13;;;;;;;12.39;47.32;98532.97;6873941;28;20200;-87
2022/02/04 13:41:06;;;;;;;2.67;1.90;;;;;;;12.54;46.43;98534.25;6883927;28;20335;-88
2022/02/04 13:44:37;;;;;;;2.03;1.93;;;;;;;12.33;46.74;98514.94;6879722;28;20208;-89
2022/02/04 13:48:04;;;;;;;2.30;2.17;;;;;;;12.29;47.24;98529.94;6875903;28;20225;-88
2022/02/04 13:51:41;;;;;;;2.00;1.90;;;;;;;12.42;45.93;98524.38;6880031;28;20232;-89
2022/02/04 13:55:16;;;;;;;2.20;2.10;;;;;;;12.27;46.41;98510.41;6885693;28;20215;-88
2022/02/04 13:58:46;;;;;;;2.70;2.10;;;;;;;12.41;47.02;98488.44;6888637;28;20204;-86
2022/02/04 14:02:10;;;;;;;2.10;2.00;;;;;;;11.72;46.43;98408.66;6885623;28;20231;-86
2022/02/04 14:05:40;;;;;;;2.00;1.90;;;;;;;12.11;46.88;98536.09;6887130;28;20211;-86
2022/02/04 14:09:14;;;;;;;2.97;1.90;;;;;;;12.32;46.57;98522.19;6896085;28;20196;-87
2022/02/04 14:12:36;;;;;;;2.10;2.00;;;;;;;12.65;46.45;98520.00;6886798;28;20229;-86
2022/02/04 14:15:59;;;;;;;2.20;2.00;;;;;;;12.79;46.02;98521.47;6878072;28;20204;-86
2022/02/04 14:19:23;;;;;;;2.60;2.40;;;;;;;12.57;47.05;98522.97;6881539;28;20205;-86
2022/02/04 14:22:45;;;;;;;2.13;1.93;;;;;;;12.86;46.27;98529.53;6875123;28;20601;-86
2022/02/04 14:26:11;;;;;;;2.27;2.10;;;;;;;12.38;47.19;98526.72;6876815;28;20201;-85
2022/02/04 14:29:39;;;;;;;1.90;1.80;;;;;;;12.45;46.52;98523.97;6892072;28;20199;-86
2022/02/04 14:33:08;;;;;;;2.40;1.90;;;;;;;12.11;46.96;98465.03;6874259;28;20295;-87
2022/02/04 14:36:44;;;;;;;2.57;1.97;;;;;;;12.40;46.57;98508.38;6885069;28;20254;-88
2022/02/04 14:59:07;;;;;;;2.00;1.90;;;;;;;11.21;48.76;98505.19;6866938;28;20728;-87
2022/02/04 15:02:41;;;;;;;2.83;1.80;;;;;;;12.00;47.60;98500.88;6868524;28;20239;-85
2022/02/04 15:06:13;;;;;;;1.70;1.60;;;;;;;11.84;46.58;98455.50;6867563;28;20295;-87
2022/02/04 15:09:37;;;;;;;1.53;1.53;;;;;;;12.15;46.64;98480.56;6868330;28;20216;-87
2022/02/04 15:13:00;;;;;;;1.50;1.50;;;;;;;12.13;45.52;98433.19;6878746;28;20223;-86
2022/02/04 15:16:22;;;;;;;1.90;1.80;;;;;;;12.38;45.67;98461.00;6895636;28;20569;-86
2022/02/04 15:19:46;;;;;;;1.60;1.50;;;;;;;12.58;45.63;98502.19;6895397;28;20215;-86
2022/02/04 15:23:10;;;;;;;1.73;1.63;;;;;;;11.98;46.74;98503.00;6896382;28;20263;-85
2022/02/04 15:26:32;;;;;;;1.90;1.80;;;;;;;12.39;46.30;98478.88;6895458;28;20201;-86
2022/02/04 15:29:54;;;;;;;2.70;1.50;;;;;;;12.16;46.78;98473.31;6895300;28;20204;-87
2022/02/04 15:33:15;;;;;;;1.70;1.60;;;;;;;12.39;46.08;98428.34;6879471;28;20240;-89
2022/02/04 15:36:41;;;;;;;1.93;1.83;;;;;;;12.16;47.19;98449.78;6869157;28;20288;-90
2022/02/04 15:40:03;;;;;;;3.13;2.00;;;;;;;12.43;45.95;98439.53;6867485;28;20216;-88
2022/02/04 15:43:27;;;;;;;1.93;1.83;;;;;;;12.46;46.81;98460.72;6867336;28;20727;-87
2022/02/04 15:47:14;;;;;;;3.50;1.60;;;;;;;12.17;46.16;98424.41;6866600;28;20216;-86
2022/02/04 15:50:41;;;;;;;2.30;2.10;;;;;;;12.30;46.73;98435.09;6866082;28;20697;-89
2022/02/04 15:54:18;;;;;;;1.90;1.80;;;;;;;12.26;46.73;98458.22;6891997;28;20633;-85
2022/02/04 15:57:48;;;;;;;2.50;2.30;;;;;;;12.24;46.84;98433.31;6886895;28;20208;-90
2022/02/04 16:01:25;;;;;;;2.07;1.97;;;;;;;12.32;46.19;98433.00;6903747;28;20231;-87
2022/02/04 16:04:48;;;;;;;2.53;2.33;;;;;;;12.56;46.46;98433.97;6886917;28;20197;-87
2022/02/04 16:08:11;;;;;;;2.00;1.90;;;;;;;11.92;47.76;98422.84;6869675;28;20201;-87
2022/02/04 16:11:49;;;;;;;12.23;4.10;;;;;;;12.55;48.31;98443.97;6867890;28;20237;-86
2022/02/04 16:15:20;;;;;;;6.57;2.83;;;;;;;12.81;47.64;98454.44;6868885;28;20221;-88
2022/02/04 16:18:55;;;;;;;1.80;1.70;;;;;;;12.72;46.42;98450.41;6878736;28;20204;-88
2022/02/04 16:22:32;;;;;;;2.00;1.90;;;;;;;12.68;46.41;98441.09;6867879;28;20343;-88
2022/02/04 16:26:00;;;;;;;1.90;1.80;;;;;;;11.95;47.71;98416.97;6867881;28;20200;-87
2022/02/04 16:29:23;;;;;;;2.07;1.90;;;;;;;12.03;48.04;98424.81;6874480;28;20219;-87
2022/02/04 16:32:45;;;;;;;2.47;2.30;;;;;;;12.12;47.65;98389.16;6894759;28;20235;-86
2022/02/04 16:36:12;;;;;;;1.90;1.80;;;;;;;12.17;47.42;98419.00;6897353;28;20717;-89
2022/02/04 16:39:36;;;;;;;1.90;1.80;;;;;;;12.07;47.91;98399.81;6899330;28;20273;-88
2022/02/04 16:42:59;;;;;;;1.90;1.80;;;;;;;11.88;47.92;98373.00;6902203;28;20232;-87
2022/02/04 16:46:25;;;;;;;1.93;1.83;;;;;;;12.07;47.81;98385.47;6904603;28;20215;-89
2022/02/04 16:49:48;;;;;;;3.10;2.23;;;;;;;12.19;47.97;98410.69;6889534;28;20228;-87
2022/02/04 16:53:09;;;;;;;1.77;1.67;;;;;;;11.20;49.40;98352.41;6872100;28;20229;-87
2022/02/04 16:56:31;;;;;;;1.97;1.87;;;;;;;11.25;49.03;98334.53;6880230;28;20657;-88
2022/02/04 16:59:53;;;;;;;2.17;1.80;;;;;;;11.64;48.91;98406.25;6888825;28;20255;-88
2022/02/04 17:03:16;;;;;;;2.10;1.90;;;;;;;11.42;48.88;98356.38;6869918;28;20225;-88
2022/02/04 17:06:41;;;;;;;3.07;2.07;;;;;;;11.68;48.55;98391.28;6867397;28;20201;-89
2022/02/04 17:10:04;;;;;;;1.70;1.60;;;;;;;11.83;48.06;98416.03;6872527;28;20208;-89
2022/02/04 17:13:26;;;;;;;2.00;1.80;;;;;;;11.96;48.33;98424.03;6889204;28;20232;-88
2022/02/04 17:16:48;;;;;;;2.00;1.90;;;;;;;11.64;48.80;98425.16;6895584;28;20204;-90
2022/02/04 17:20:14;;;;;;;2.10;2.00;;;;;;;11.61;48.28;98401.28;6886895;28;20208;-86
2022/02/04 17:23:42;;;;;;;1.90;1.80;;;;;;;11.23;49.55;98405.94;6871754;28;20233;-85
2022/02/04 17:27:04;;;;;;;2.03;1.80;;;;;;;11.35;50.17;98410.44;6896242;28;20200;-86
2022/02/04 17:30:26;;;;;;;2.63;2.30;;;;;;;11.60;48.96;98421.25;6916166;28;20212;-86
2022/02/04 17:33:48;;;;;;;1.83;1.73;;;;;;;11.29;49.22;98414.00;6901246;28;20259;-85
2022/02/04 17:37:12;;;;;;;2.10;2.00;;;;;;;11.34;47.90;98343.97;6901890;28;20215;-86
2022/02/04 17:40:34;;;;;;;1.90;1.80;;;;;;;11.60;48.23;98402.34;6900832;28;20326;-85
2022/02/04 17:43:57;;;;;;;2.23;2.03;;;;;;;11.40;48.20;98428.66;6899130;28;20231;-85
2022/02/04 17:47:20;;;;;;;2.03;1.93;;;;;;;11.54;48.51;98441.00;6874805;28;20213;-86
2022/02/04 17:50:50;;;;;;;2.00;1.90;;;;;;;12.39;46.26;98446.44;6886095;28;20276;-86
2022/02/04 17:54:16;;;;;;;1.97;1.87;;;;;;;11.77;47.15;98416.94;6904794;28;20220;-86
2022/02/04 17:57:42;;;;;;;2.00;1.90;;;;;;;12.04;46.99;98445.38;6878549;28;20224;-86
2022/02/04 18:01:19;;;;;;;1.70;1.60;;;;;;;11.98;46.74;98451.66;6871840;28;20221;-85
2022/02/04 18:08:20;;;;;;;1.60;1.50;;;;;;;11.67;46.72;98422.84;6871196;28;20635;-87
2022/02/04 18:11:43;;;;;;;1.80;1.70;;;;;;;11.80;46.64;98447.03;6873705;28;20224;-86
2022/02/04 18:15:06;;;;;;;1.70;1.60;;;;;;;11.05;48.28;98436.34;6883718;28;20208;-87
2022/02/04 18:18:28;;;;;;;1.50;1.50;;;;;;;11.30;48.32;98425.59;6910908;28;20196;-87
2022/02/04 18:21:50;;;;;;;1.67;1.57;;;;;;;11.49;47.86;98460.56;6894528;28;20316;-86
2022/02/04 18:25:12;;;;;;;1.77;1.67;;;;;;;11.47;47.70;98448.31;6898694;28;20294;-86
2022/02/04 18:28:35;;;;;;;1.80;1.70;;;;;;;11.93;47.06;98451.50;6900272;28;20204;-87
2022/02/04 18:31:56;;;;;;;1.50;1.40;;;;;;;11.82;47.44;98457.63;6899511;28;20236;-86
2022/02/04 18:35:19;;;;;;;1.80;1.70;;;;;;;11.66;46.96;98396.91;6899994;28;20669;-86
2022/02/04 18:38:48;;;;;;;1.70;1.60;;;;;;;12.58;45.58;98450.78;6899638;28;20197;-86
2022/02/04 18:45:46;;;;;;;1.63;1.53;;;;;;;12.23;47.03;98465.94;6899784;28;20227;-86
2022/02/04 18:49:16;;;;;;;1.70;1.60;;;;;;;11.71;48.19;98461.88;6900920;28;20211;-86
2022/02/04 18:52:45;;;;;;;1.87;1.77;;;;;;;11.57;48.03;98416.28;6900542;28;20228;-86
2022/02/04 18:56:29;;;;;;;1.70;1.60;;;;;;;11.83;47.56;98435.81;6899107;28;20212;-86
2022/02/04 18:59:58;;;;;;;1.80;1.70;;;;;;;11.84;48.46;98504.13;6899769;28;20216;-86
2022/02/04 19:03:25;;;;;;;1.80;1.70;;;;;;;11.83;49.11;98506.03;6900497;28;20235;-86
2022/02/04 19:06:53;;;;;;;1.70;1.67;;;;;;;11.78;49.16;98486.09;6898114;28;20254;-86
2022/02/04 19:10:15;;;;;;;2.47;2.20;;;;;;;11.87;47.83;98457.78;6900842;28;20210;-86
2022/02/04 19:13:42;;;;;;;1.73;1.63;;;;;;;12.55;47.87;98497.19;6899177;28;20219;-87
2022/02/04 19:17:09;;;;;;;1.70;1.60;;;;;;;12.42;47.69;98481.13;6899616;28;20185;-86
2022/02/04 19:20:37;;;;;;;1.90;1.80;;;;;;;11.65;48.79;98443.84;6898715;28;20263;-86
2022/02/04 19:23:59;;;;;;;1.60;1.50;;;;;;;11.58;50.20;98463.81;6898001;28;20270;-86
2022/02/04 19:27:20;;;;;;;1.60;1.50;;;;;;;12.33;48.72;98488.69;6899358;28;20216;-86
2022/02/04 19:30:46;;;;;;;1.73;1.63;;;;;;;12.30;48.90;98501.84;6899191;28;20240;-86
2022/02/04 19:34:08;;;;;;;1.83;1.73;;;;;;;12.45;48.48;98486.09;6899105;28;20219;-86
2022/02/04 19:37:31;;;;;;;1.70;1.60;;;;;;;12.73;47.55;98497.19;6898476;28;20251;-86
2022/02/04 19:40:52;;;;;;;1.87;1.77;;;;;;;12.21;48.48;98465.38;6898566;28;20614;-86
2022/02/04 19:44:14;;;;;;;1.97;1.87;;;;;;;11.97;49.77;98495.91;6897999;28;20251;-86
2022/02/04 19:47:45;;;;;;;1.70;1.60;;;;;;;11.59;50.49;98465.50;6899525;28;20212;-86
2022/02/04 19:51:23;;;;;;;1.70;1.60;;;;;;;11.19;52.27;98485.66;6898463;28;20231;-86
2022/02/04 19:55:18;;;;;;;2.80;2.60;;;;;;;11.54;50.85;98454.50;6899117;28;20649;-86
2022/02/04 20:18:03;;;;;;;1.80;1.70;;;;;;;12.15;50.59;98469.75;6898391;28;20243;-86
2022/02/04 20:24:54;;;;;;;1.90;1.80;;;;;;;11.96;50.83;98454.56;6897227;28;20224;-86
2022/02/04 20:28:17;;;;;;;2.00;1.70;;;;;;;11.96;51.27;98480.75;6898692;28;20192;-86
2022/02/04 20:31:39;;;;;;;3.27;1.70;;;;;;;11.77;51.29;98454.75;6897906;28;20228;-86
2022/02/04 20:35:01;;;;;;;1.57;1.37;;;;;;;11.60;52.71;98499.53;6898925;28;20208;-86
2022/02/04 20:38:28;;;;;;;1.90;1.80;;;;;;;11.88;51.87;98486.44;6899295;28;20204;-85
2022/02/04 20:41:51;;;;;;;2.43;1.90;;;;;;;12.01;51.75;98476.34;6898636;28;20224;-86
2022/02/04 20:45:13;;;;;;;2.00;1.77;;;;;;;11.86;51.81;98456.13;6897002;28;20236;-85
2022/02/04 20:48:36;;;;;;;2.53;2.10;;;;;;;11.74;52.45;98472.22;6897975;28;20225;-85
2022/02/04 20:51:58;;;;;;;2.00;1.90;;;;;;;11.87;52.03;98485.59;6897947;28;20751;-86
2022/02/04 20:55:20;;;;;;;1.80;1.70;;;;;;;12.03;51.86;98490.47;6897218;28;20216;-85
2022/02/04 20:58:43;;;;;;;2.33;1.73;;;;;;;11.94;51.57;98461.25;6896829;28;20201;-86
2022/02/04 21:02:05;;;;;;;1.57;1.47;;;;;;;12.01;51.67;98480.91;6900719;28;20587;-86
2022/02/04 21:05:37;;;;;;;3.33;1.73;;;;;;;12.10;51.72;98488.53;6896749;28;20237;-86
2022/02/04 21:09:49;;;;;;;1.63;1.53;;;;;;;12.06;51.78;98481.94;6897968;28;20197;-87
2022/02/04 21:16:39;;;;;;;3.33;1.77;;;;;;;12.14;52.68;98510.50;6898603;28;20232;-86
2022/02/04 21:20:00;;;;;;;1.97;1.80;;;;;;;12.10;53.57;98518.25;6898992;28;20663;-86
2022/02/04 21:23:22;;;;;;;1.80;1.70;;;;;;;12.82;51.33;98518.34;6901866;28;20240;-86
2022/02/04 21:26:45;;;;;;;1.87;1.60;;;;;;;12.53;52.06;98520.94;6902814;28;20216;-86
2022/02/04 21:30:08;;;;;;;1.83;1.67;;;;;;;12.33;52.40;98510.34;6904536;28;20732;-86
2022/02/04 21:34:08;;;;;;;1.90;1.70;;;;;;;12.23;53.30;98522.72;6910881;28;20219;-87
2022/02/04 21:37:26;;;;;;;1.70;1.60;;;;;;;12.26;52.82;98501.47;6902539;28;20204;-87
2022/02/04 21:40:47;;;;;;;1.87;1.70;;;;;;;12.18;53.44;98536.06;6899924;28;20229;-87
2022/02/04 21:44:09;;;;;;;1.67;1.57;;;;;;;12.35;53.26;98546.09;6874985;28;20231;-86
2022/02/04 21:47:35;;;;;;;1.70;1.60;;;;;;;12.67;52.46;98539.53;6892791;28;20215;-87
2022/02/04 21:50:59;;;;;;;1.80;1.70;;;;;;;12.10;53.57;98536.34;6897976;28;20225;-86
2022/02/04 21:54:24;;;;;;;2.80;2.00;;;;;;;11.85;54.00;98524.69;6885687;28;20213;-87
2022/02/04 21:57:46;;;;;;;7.00;4.30;;;;;;;11.93;55.40;98564.97;6895675;28;20673;-88
